Time;durP1;ratioP1;P1;durP2;ratioP2;P2;SDS_P1;SDS_P2;PMS_P1;PMS_P2;Temp;Humidity;BMP_temperature;BMP_pressure;BME280_temperature;BME280_humidity;BME280_pressure;Samples;Min_cycle;Max_cycle;Signal;HPM_P1;HPM_P2
2022/06/22 00:00:40;;;;;;;5.80;1.95;;;13.00;99.90;;;;;;5097205;28;20036;-76
2022/06/22 00:03:09;;;;;;;3.15;1.35;;;13.00;99.90;;;;;;5079163;28;20437;-76
2022/06/22 00:05:47;;;;;;;2.45;1.30;;;12.90;99.90;;;;;;5097427;28;20016;-76
2022/06/22 00:08:20;;;;;;;4.40;1.48;;;12.90;99.90;;;;;;5097319;28;20031;-76
2022/06/22 00:11:02;;;;;;;2.30;1.20;;;12.80;99.90;;;;;;5079151;28;20020;-76
2022/06/22 00:13:30;;;;;;;2.97;0.93;;;12.80;99.90;;;;;;5079129;28;20067;-76
2022/06/22 00:16:01;;;;;;;4.18;0.93;;;12.80;99.90;;;;;;5097275;28;20050;-76
2022/06/22 00:18:42;;;;;;;4.55;1.00;;;12.70;99.90;;;;;;5097109;28;20024;-76
2022/06/22 00:21:14;;;;;;;7.30;1.30;;;12.70;99.90;;;;;;5097385;28;20032;-75
2022/06/22 00:23:43;;;;;;;3.38;1.27;;;12.60;99.90;;;;;;5097060;28;20024;-76
2022/06/22 00:26:31;;;;;;;3.50;1.38;;;12.60;99.90;;;;;;5096922;28;20024;-76
2022/06/22 00:29:09;;;;;;;3.70;1.38;;;12.50;99.90;;;;;;5078844;28;20020;-76
2022/06/22 00:31:37;;;;;;;5.22;1.48;;;12.50;99.90;;;;;;5097161;28;20024;-76
2022/06/22 00:34:13;;;;;;;3.92;1.13;;;12.50;99.90;;;;;;5078855;28;20027;-76
2022/06/22 00:37:00;;;;;;;1.88;1.20;;;12.40;99.90;;;;;;5097346;28;20377;-76
2022/06/22 00:39:43;;;;;;;4.40;1.35;;;12.30;99.90;;;;;;5097238;28;20077;-76
2022/06/22 00:42:14;;;;;;;3.55;1.17;;;12.30;99.90;;;;;;5096868;28;20080;-76
2022/06/22 00:44:52;;;;;;;2.42;1.20;;;12.30;99.90;;;;;;5097089;28;20051;-75
2022/06/22 00:47:26;;;;;;;4.50;1.35;;;12.20;99.90;;;;;;5097072;28;20107;-76
2022/06/22 00:50:06;;;;;;;4.93;1.17;;;12.20;99.90;;;;;;5096416;28;20066;-76
2022/06/22 00:52:40;;;;;;;2.13;1.17;;;12.10;99.90;;;;;;5096495;28;20106;-76
2022/06/22 00:55:35;;;;;;;5.28;1.15;;;12.10;99.90;;;;;;5078625;28;20062;-74
2022/06/22 00:58:08;;;;;;;2.10;1.20;;;12.10;99.90;;;;;;5078205;28;20028;-75
2022/06/22 01:00:39;;;;;;;3.75;1.42;;;12.00;99.90;;;;;;5096477;28;20028;-75
2022/06/22 01:03:14;;;;;;;3.80;1.20;;;12.00;99.90;;;;;;5096508;28;20020;-75
2022/06/22 01:06:01;;;;;;;3.42;1.70;;;12.00;99.90;;;;;;5096855;28;20550;-75
2022/06/22 01:08:54;;;;;;;3.65;1.23;;;12.00;99.90;;;;;;5096598;28;20435;-75
2022/06/22 01:14:19;;;;;;;5.85;1.83;;;11.90;99.90;;;;;;5097305;28;20153;-75
2022/06/22 01:16:49;;;;;;;7.00;1.88;;;11.90;99.90;;;;;;5096457;28;20103;-75
2022/06/22 01:19:44;;;;;;;3.75;1.40;;;11.90;99.90;;;;;;5096269;28;20451;-75
2022/06/22 01:22:27;;;;;;;3.83;2.22;;;11.90;99.90;;;;;;5078018;28;20024;-75
2022/06/22 01:24:57;;;;;;;5.70;1.80;;;11.90;99.90;;;;;;5095901;28;20024;-75
2022/06/22 01:27:30;;;;;;;;;;;11.90;99.90;;;;;;5096966;28;20016;-76
2022/06/22 01:30:00;;;;;;;8.55;1.55;;;11.90;99.90;;;;;;5078055;28;20010;-75
2022/06/22 01:32:29;;;;;;;4.70;2.67;;;11.90;99.90;;;;;;5096043;28;20370;-75
2022/06/22 01:34:59;;;;;;;4.15;2.00;;;11.90;99.90;;;;;;5096202;28;20035;-75
2022/06/22 01:37:28;;;;;;;6.90;2.70;;;11.80;99.90;;;;;;5077678;28;20069;-75
2022/06/22 01:40:35;;;;;;;5.13;2.22;;;11.90;99.90;;;;;;5096352;28;20042;-75
2022/06/22 01:43:17;;;;;;;5.28;2.13;;;11.80;99.90;;;;;;5085692;28;20028;-75
2022/06/22 01:45:52;;;;;;;5.43;2.40;;;11.80;99.90;;;;;;5095814;28;20024;-75
2022/06/22 01:48:32;;;;;;;7.65;2.00;;;11.80;99.90;;;;;;5077548;28;20030;-76
2022/06/22 01:51:10;;;;;;;4.47;2.97;;;11.80;99.90;;;;;;5096326;28;20489;-76
2022/06/22 01:53:48;;;;;;;8.50;2.72;;;11.80;99.90;;;;;;5095776;28;20388;-75
2022/06/22 01:56:25;;;;;;;5.68;2.78;;;11.80;99.90;;;;;;5095877;28;20032;-75
2022/06/22 01:59:12;;;;;;;6.53;2.55;;;11.80;99.90;;;;;;5095673;28;20119;-75
2022/06/22 02:01:47;;;;;;;6.00;2.35;;;11.80;99.90;;;;;;5095310;28;20119;-75
2022/06/22 02:04:38;;;;;;;5.88;2.55;;;11.80;99.90;;;;;;5095902;28;20023;-75
2022/06/22 02:10:09;;;;;;;3.60;1.85;;;11.80;99.90;;;;;;5095234;28;20030;-75
2022/06/22 02:12:41;;;;;;;3.78;2.22;;;11.70;99.90;;;;;;5095018;28;20027;-75
2022/06/22 02:15:17;;;;;;;5.13;2.20;;;11.70;99.90;;;;;;5077013;28;20031;-75
2022/06/22 02:17:45;;;;;;;5.38;2.17;;;11.60;99.90;;;;;;5076476;28;20126;-75
2022/06/22 02:20:37;;;;;;;7.47;2.45;;;11.60;99.90;;;;;;5094938;28;20035;-75
2022/06/22 02:23:10;;;;;;;2.83;2.03;;;11.50;99.90;;;;;;5086563;28;20123;-75
2022/06/22 02:25:41;;;;;;;7.15;2.22;;;11.50;99.90;;;;;;5077353;28;20023;-75
2022/06/22 02:28:07;;;;;;;4.10;2.30;;;11.50;99.90;;;;;;5094719;28;20031;-75
2022/06/22 02:30:33;;;;;;;7.25;2.60;;;12.40;99.90;;;;;;5077214;28;20028;-75
2022/06/22 02:33:00;;;;;;;5.50;2.40;;;11.40;99.90;;;;;;5095032;28;20149;-75
2022/06/22 02:35:26;;;;;;;6.03;2.42;;;11.40;99.90;;;;;;5076721;28;20043;-75
2022/06/22 02:38:03;;;;;;;9.00;3.58;;;11.30;99.90;;;;;;5076563;28;20024;-75
2022/06/22 02:40:32;;;;;;;8.85;3.72;;;11.30;99.90;;;;;;5095064;28;20103;-75
2022/06/22 02:45:43;;;;;;;8.60;3.42;;;11.40;99.90;;;;;;5095335;28;20119;-75
2022/06/22 02:48:13;;;;;;;7.53;3.60;;;11.60;99.90;;;;;;5094437;28;20020;-75
2022/06/22 02:50:59;;;;;;;6.78;2.85;;;11.40;99.90;;;;;;5094739;28;20035;-75
2022/06/22 02:53:37;;;;;;;7.22;3.15;;;11.40;99.90;;;;;;5076478;28;20021;-76
2022/06/22 02:56:05;;;;;;;8.90;3.27;;;11.30;99.90;;;;;;5094722;28;20419;-75
2022/06/22 02:58:34;;;;;;;6.45;3.15;;;11.40;99.90;;;;;;5094950;28;20266;-76
2022/06/22 03:01:12;;;;;;;8.32;3.85;;;11.40;99.90;;;;;;5094256;28;20028;-76
2022/06/22 03:03:40;;;;;;;8.35;3.40;;;11.40;99.90;;;;;;5094342;28;20031;-75
2022/06/22 03:06:10;;;;;;;12.73;3.88;;;11.40;99.90;;;;;;5094222;28;20108;-75
2022/06/22 03:08:36;;;;;;;10.75;4.20;;;11.40;99.90;;;;;;5076743;28;20065;-76
2022/06/22 03:11:04;;;;;;;8.25;3.85;;;11.40;99.90;;;;;;5076256;28;20477;-75
2022/06/22 03:13:53;;;;;;;8.48;4.43;;;11.50;99.90;;;;;;5094294;28;20028;-76
2022/06/22 03:16:26;;;;;;;9.90;4.45;;;11.50;99.90;;;;;;5093943;28;20028;-76
2022/06/22 03:18:56;;;;;;;14.25;4.18;;;11.60;99.90;;;;;;5094350;28;20041;-75
2022/06/22 03:21:22;;;;;;;7.32;4.30;;;11.60;99.90;;;;;;5094196;28;20020;-77
2022/06/22 03:23:59;;;;;;;9.43;4.07;;;11.60;99.90;;;;;;5075850;28;20089;-75
2022/06/22 03:26:32;;;;;;;9.57;4.22;;;11.60;99.90;;;;;;5075854;28;20031;-76
2022/06/22 03:29:07;;;;;;;7.35;4.32;;;11.60;99.90;;;;;;5093336;28;20491;-75
2022/06/22 03:31:45;;;;;;;10.68;5.00;;;11.60;99.90;;;;;;5094915;28;20033;-75
2022/06/22 03:34:17;;;;;;;7.57;4.47;;;11.60;99.90;;;;;;5094356;28;20024;-74
2022/06/22 03:36:51;;;;;;;11.48;4.35;;;11.60;99.90;;;;;;5094036;28;20037;-74
2022/06/22 03:39:20;;;;;;;6.72;3.95;;;11.60;99.90;;;;;;5093813;28;20388;-74
2022/06/22 03:42:06;;;;;;;8.68;4.50;;;11.60;99.90;;;;;;5093637;28;20024;-75
2022/06/22 03:44:43;;;;;;;8.68;3.70;;;11.60;99.90;;;;;;5075866;28;20031;-74
2022/06/22 03:47:17;;;;;;;7.70;3.80;;;11.60;99.90;;;;;;5093679;28;20024;-75
2022/06/22 03:50:04;;;;;;;5.63;3.63;;;11.60;99.90;;;;;;5093729;28;20108;-75
2022/06/22 03:52:43;;;;;;;12.52;3.80;;;11.50;99.90;;;;;;5075481;28;20021;-75
2022/06/22 03:55:20;;;;;;;12.70;5.05;;;11.50;99.90;;;;;;5093917;28;20028;-75
2022/06/22 03:57:49;;;;;;;5.35;3.83;;;11.60;99.90;;;;;;5093544;28;20073;-75
2022/06/22 04:00:16;;;;;;;6.43;3.88;;;11.60;99.90;;;;;;5075327;28;20028;-75
2022/06/22 04:02:43;;;;;;;9.35;4.03;;;11.60;99.90;;;;;;5093554;28;20617;-75
2022/06/22 04:05:27;;;;;;;8.25;4.32;;;11.60;99.90;;;;;;5093568;28;20069;-75
2022/06/22 04:07:54;;;;;;;8.30;4.32;;;11.70;99.90;;;;;;5075451;28;20123;-76
2022/06/22 04:10:44;;;;;;;7.07;4.03;;;11.70;99.90;;;;;;5093578;28;20052;-75
2022/06/22 04:13:28;;;;;;;7.57;3.20;;;11.80;99.90;;;;;;5075439;28;20476;-75
2022/06/22 04:16:17;;;;;;;9.38;3.53;;;11.80;99.90;;;;;;5075302;28;20048;-75
2022/06/22 04:18:52;;;;;;;6.28;2.97;;;11.80;99.90;;;;;;5093419;28;20021;-75
2022/06/22 04:21:23;;;;;;;9.02;3.42;;;11.90;99.90;;;;;;5075466;28;20460;-75
2022/06/22 04:24:11;;;;;;;5.13;2.85;;;11.90;99.90;;;;;;5093717;28;20016;-75
2022/06/22 04:27:06;;;;;;;9.23;2.85;;;12.00;99.90;;;;;;5093634;28;20028;-75
2022/06/22 04:29:45;;;;;;;10.70;3.30;;;12.00;99.90;;;;;;5093761;28;20012;-75
2022/06/22 04:32:30;;;;;;;4.97;2.83;;;12.10;99.90;;;;;;5093365;28;20036;-75
2022/06/22 04:35:06;;;;;;;6.85;4.18;;;12.20;99.90;;;;;;5075330;28;20040;-75
2022/06/22 04:37:47;;;;;;;7.35;3.63;;;12.20;99.90;;;;;;5093789;28;20469;-75
2022/06/22 04:40:35;;;;;;;7.53;3.40;;;12.40;99.90;;;;;;5077440;28;20477;-75
2022/06/22 04:43:04;;;;;;;9.65;3.58;;;12.40;99.90;;;;;;5097015;28;20038;-75
2022/06/22 04:45:31;;;;;;;;;;;12.50;99.90;;;;;;5098089;28;20469;-75
2022/06/22 04:48:02;;;;;;;8.20;3.78;;;12.70;99.90;;;;;;5097004;28;19977;-75
2022/06/22 04:50:28;;;;;;;7.60;3.85;;;12.80;99.90;;;;;;5097031;28;20024;-75
2022/06/22 04:52:55;;;;;;;8.52;5.35;;;12.90;99.90;;;;;;5078682;28;20074;-75
2022/06/22 04:55:25;;;;;;;10.93;4.53;;;13.00;99.90;;;;;;5078481;28;20012;-75
2022/06/22 04:57:56;;;;;;;8.32;4.20;;;13.20;99.90;;;;;;5096956;28;20461;-75
2022/06/22 05:00:25;;;;;;;12.50;5.28;;;13.30;99.90;;;;;;5078559;28;20032;-75
2022/06/22 05:03:00;;;;;;;10.63;3.65;;;13.40;99.90;;;;;;5078197;28;20029;-75
2022/06/22 05:05:30;;;;;;;12.45;4.55;;;13.60;99.90;;;;;;5097135;28;20024;-75
2022/06/22 05:08:26;;;;;;;5.10;3.45;;;13.70;99.90;;;;;;5096389;28;20069;-75
2022/06/22 05:10:59;;;;;;;4.85;3.53;;;13.90;99.90;;;;;;5096241;28;20027;-75
2022/06/22 05:13:55;;;;;;;10.48;4.15;;;14.00;99.90;;;;;;5078321;28;20452;-76
2022/06/22 05:16:25;;;;;;;9.27;3.97;;;14.60;99.90;;;;;;5061893;28;20044;-75
2022/06/22 05:18:52;;;;;;;5.85;3.50;;;14.30;99.90;;;;;;5096316;28;20500;-75
2022/06/22 05:21:37;;;;;;;7.93;3.25;;;14.50;99.90;;;;;;5096262;28;20127;-75
2022/06/22 05:24:28;;;;;;;6.88;3.08;;;14.60;99.90;;;;;;5078026;28;20024;-75
2022/06/22 05:26:57;;;;;;;8.43;3.08;;;14.80;99.90;;;;;;5096407;28;20044;-76
2022/06/22 05:29:35;;;;;;;7.35;2.97;;;15.00;99.90;;;;;;5096566;28;20043;-76
2022/06/22 05:32:05;;;;;;;10.60;2.92;;;15.10;99.90;;;;;;5096177;28;20016;-75
2022/06/22 05:34:34;;;;;;;7.13;3.13;;;15.20;99.90;;;;;;5096128;28;20059;-75
2022/06/22 05:37:14;;;;;;;5.78;2.45;;;15.30;99.90;;;;;;5077640;28;20054;-76
2022/06/22 05:39:41;;;;;;;6.35;2.70;;;15.40;99.90;;;;;;5078268;28;20063;-75
2022/06/22 05:42:10;;;;;;;4.20;2.58;;;15.60;99.90;;;;;;5096149;28;20063;-75
2022/06/22 05:44:35;;;;;;;11.30;3.15;;;15.70;99.90;;;;;;5077945;28;20431;-76
2022/06/22 05:47:02;;;;;;;6.38;2.08;;;15.80;99.90;;;;;;5095868;28;20020;-76
2022/06/22 05:49:58;;;;;;;7.97;2.60;;;15.90;99.90;;;;;;5095699;28;20077;-76
2022/06/22 05:52:23;;;;;;;4.57;2.38;;;16.00;99.90;;;;;;5092957;28;20382;-76
2022/06/22 05:54:57;;;;;;;6.40;2.25;;;16.10;99.90;;;;;;5096379;28;20027;-76
2022/06/22 05:57:52;;;;;;;5.95;2.15;;;16.30;99.90;;;;;;5095690;28;20020;-76
2022/06/22 06:00:53;;;;;;;6.25;2.20;;;16.40;99.90;;;;;;5092196;22;20101;-86
2022/06/22 06:03:41;;;;;;;5.20;1.80;;;16.60;99.90;;;;;;5079471;28;20032;-88
2022/06/22 06:06:32;;;;;;;7.32;2.08;;;16.70;99.90;;;;;;5098051;28;20027;-86
2022/06/22 06:09:13;;;;;;;5.78;1.48;;;16.80;99.90;;;;;;5080009;28;20032;-88
2022/06/22 06:12:13;;;;;;;5.22;1.85;;;17.60;99.90;;;;;;5078500;28;20388;-88
2022/06/22 06:15:13;;;;;;;2.25;1.30;;;17.20;99.90;;;;;;5064876;28;20047;-86
2022/06/22 06:18:04;;;;;;;4.40;1.75;;;17.80;99.90;;;;;;5099030;28;20020;-86
2022/06/22 06:20:47;;;;;;;8.23;1.02;;;17.30;99.90;;;;;;5067957;28;20477;-87
2022/06/22 06:23:43;;;;;;;4.05;1.33;;;17.40;99.90;;;;;;5078995;28;20085;-87
2022/06/22 06:29:27;;;;;;;4.32;1.38;;;17.70;99.90;;;;;;5066729;28;20098;-87
2022/06/22 06:32:14;;;;;;;3.28;1.27;;;17.90;99.90;;;;;;5079525;28;20046;-88
2022/06/22 06:35:09;;;;;;;1.60;1.10;;;18.10;99.90;;;;;;5079131;28;20032;-87
2022/06/22 06:37:48;;;;;;;3.65;0.95;;;18.60;99.90;;;;;;5067703;28;20496;-87
2022/06/22 06:40:22;;;;;;;3.88;1.52;;;18.20;99.90;;;;;;5078856;28;20032;-87
2022/06/22 06:43:36;;;;;;;1.98;0.80;;;18.10;99.90;;;;;;5077653;28;20055;-87
2022/06/22 06:46:38;;;;;;;4.93;0.77;;;18.90;99.90;;;;;;5077901;28;20058;-88
2022/06/22 06:49:39;;;;;;;3.17;0.98;;;18.30;99.90;;;;;;5078052;28;20016;-86
2022/06/22 06:52:20;;;;;;;3.85;0.75;;;18.90;99.90;;;;;;5078147;28;20028;-86
2022/06/22 06:55:08;;;;;;;3.03;0.40;;;18.70;99.90;;;;;;5080558;28;20020;-87
2022/06/22 06:57:54;;;;;;;1.58;0.30;;;19.30;99.90;;;;;;5100758;28;20039;-88
2022/06/22 07:00:20;;;;;;;3.05;0.60;;;20.00;99.90;;;;;;5090479;22;20059;-74
2022/06/22 07:02:46;;;;;;;2.75;0.40;;;19.10;99.90;;;;;;5094206;28;20102;-74
2022/06/22 07:05:16;;;;;;;1.92;0.10;;;19.20;99.90;;;;;;5094393;28;20439;-74
2022/06/22 07:08:05;;;;;;;1.60;0.40;;;19.30;99.90;;;;;;5076152;28;20076;-75
2022/06/22 07:10:51;;;;;;;5.28;0.30;;;19.40;99.90;;;;;;5095522;28;20411;-75
2022/06/22 07:13:32;;;;;;;2.95;0.10;;;19.40;99.90;;;;;;5094301;28;20031;-75
2022/06/22 07:16:04;;;;;;;0.63;0.00;;;19.60;99.90;;;;;;5076163;28;20027;-75
2022/06/22 07:18:41;;;;;;;1.50;0.20;;;19.70;99.90;;;;;;5094914;28;20027;-74
2022/06/22 07:21:35;;;;;;;1.98;0.00;;;19.80;99.90;;;;;;5075699;28;20035;-77
2022/06/22 07:24:03;;;;;;;0.88;0.00;;;20.00;99.90;;;;;;5075852;28;20028;-75
2022/06/22 07:26:47;;;;;;;0.10;0.00;;;20.30;99.90;;;;;;5094041;28;20067;-75
2022/06/22 07:29:37;;;;;;;0.70;0.00;;;20.40;99.70;;;;;;5075672;28;20024;-75
2022/06/22 07:32:40;;;;;;;1.17;0.30;;;20.50;96.30;;;;;;5094094;28;20036;-74
2022/06/22 07:35:24;;;;;;;1.45;0.10;;;20.60;96.20;;;;;;5059801;28;20503;-73
2022/06/22 07:38:18;;;;;;;1.55;0.10;;;20.70;93.10;;;;;;5093633;28;20365;-75
2022/06/22 07:43:32;;;;;;;2.20;0.10;;;20.90;92.90;;;;;;5093673;28;20031;-75
2022/06/22 07:45:58;;;;;;;4.03;0.10;;;21.00;91.50;;;;;;5093643;28;20020;-73
2022/06/22 07:48:29;;;;;;;1.55;0.17;;;21.00;91.30;;;;;;5093464;28;20020;-75
2022/06/22 07:51:00;;;;;;;0.52;0.00;;;21.00;91.60;;;;;;5093573;28;20388;-75
2022/06/22 07:54:14;;;;;;;1.20;0.17;;;21.10;92.10;;;;;;5093416;28;20153;-75
2022/06/22 07:56:54;;;;;;;1.30;0.30;;;21.10;90.50;;;;;;5031277;28;20040;-75
2022/06/22 07:59:28;;;;;;;1.27;0.40;;;21.10;91.70;;;;;;5069693;28;20032;-75
2022/06/22 08:01:59;;;;;;;0.90;0.40;;;21.20;91.30;;;;;;5092916;28;20032;-74
2022/06/22 08:04:31;;;;;;;0.65;0.10;;;21.40;92.30;;;;;;5093537;28;20024;-75
2022/06/22 08:07:01;;;;;;;1.80;0.10;;;21.50;91.40;;;;;;5075356;28;20358;-75
2022/06/22 08:09:34;;;;;;;1.38;0.17;;;21.60;90.70;;;;;;5093765;28;20504;-75
2022/06/22 08:12:09;;;;;;;2.20;0.20;;;21.70;90.90;;;;;;5094185;28;20071;-75
2022/06/22 08:14:42;;;;;;;1.17;0.10;;;21.80;90.30;;;;;;5095132;28;20020;-75
2022/06/22 08:17:29;;;;;;;3.67;0.10;;;21.90;91.00;;;;;;5098214;28;20028;-75
2022/06/22 08:19:55;;;;;;;2.57;0.10;;;21.90;90.80;;;;;;5098655;28;20032;-75
2022/06/22 08:22:25;;;;;;;1.63;0.30;;;22.00;90.00;;;;;;5079615;28;20028;-75
2022/06/22 08:24:55;;;;;;;1.48;0.17;;;22.10;90.90;;;;;;5097781;28;20027;-75
2022/06/22 08:27:23;;;;;;;1.08;0.15;;;22.20;87.10;;;;;;5097883;28;20028;-75
2022/06/22 08:29:50;;;;;;;1.08;0.20;;;22.10;90.60;;;;;;5097715;28;20141;-75
2022/06/22 08:32:37;;;;;;;2.65;0.60;;;22.20;90.60;;;;;;5097862;28;20389;-74
2022/06/22 08:35:17;;;;;;;2.92;0.10;;;22.30;91.20;;;;;;5097795;28;20050;-74
2022/06/22 08:37:52;;;;;;;1.08;0.20;;;22.40;90.50;;;;;;5079330;28;20081;-74
2022/06/22 08:40:49;;;;;;;4.25;0.30;;;22.50;88.70;;;;;;5097624;28;20024;-74
2022/06/22 08:43:43;;;;;;;2.78;0.30;;;22.60;87.50;;;;;;5097853;28;20081;-75
2022/06/22 08:46:36;;;;;;;1.95;0.10;;;22.60;86.00;;;;;;5079246;28;20055;-74
2022/06/22 08:49:20;;;;;;;0.50;0.13;;;22.60;84.10;;;;;;5097224;28;20025;-75
2022/06/22 08:52:16;;;;;;;2.08;0.73;;;22.60;82.00;;;;;;5097674;28;20023;-75
2022/06/22 08:55:12;;;;;;;3.33;0.22;;;22.60;81.40;;;;;;5097089;28;20024;-75
2022/06/22 08:58:08;;;;;;;0.60;0.20;;;22.70;80.30;;;;;;5097406;28;20497;-75
2022/06/22 09:00:56;;;;;;;3.85;0.52;;;22.70;77.20;;;;;;5097149;28;20039;-75
2022/06/22 09:03:40;;;;;;;1.73;0.00;;;22.60;79.80;;;;;;5088757;28;20401;-75
2022/06/22 09:06:09;;;;;;;1.02;0.10;;;22.80;81.80;;;;;;5078773;28;20025;-75
2022/06/22 09:08:52;;;;;;;;;;;22.90;77.90;;;;;;5097417;28;20476;-75
2022/06/22 09:11:30;;;;;;;2.30;0.20;;;22.80;76.70;;;;;;5096805;28;20013;-75
2022/06/22 09:14:32;;;;;;;3.55;0.32;;;23.00;77.60;;;;;;5078892;28;20378;-75
2022/06/22 09:17:16;;;;;;;1.17;0.00;;;23.00;76.30;;;;;;5096736;28;20533;-75
2022/06/22 09:20:14;;;;;;;0.08;0.00;;;23.10;74.20;;;;;;5096616;28;20110;-75
2022/06/22 09:22:52;;;;;;;2.73;0.10;;;23.20;74.70;;;;;;5096622;28;20031;-75
2022/06/22 09:25:20;;;;;;;0.85;0.10;;;23.20;73.10;;;;;;5096143;28;20020;-75
2022/06/22 09:27:55;;;;;;;;;;;23.20;72.40;;;;;;5096399;28;20072;-75
2022/06/22 09:30:30;;;;;;;2.10;0.03;;;23.30;70.80;;;;;;5096200;28;20284;-75
2022/06/22 09:33:08;;;;;;;0.77;0.00;;;23.40;71.90;;;;;;5096519;28;20389;-75
2022/06/22 09:35:52;;;;;;;2.30;0.00;;;23.60;73.80;;;;;;5078240;28;20035;-76
2022/06/22 09:38:41;;;;;;;2.47;0.20;;;23.80;69.30;;;;;;5096172;28;20032;-75
2022/06/22 09:41:36;;;;;;;0.65;0.00;;;23.80;67.60;;;;;;5096495;28;20432;-74
2022/06/22 09:44:33;;;;;;;0.63;0.00;;;23.90;68.30;;;;;;5096281;28;20031;-74
2022/06/22 09:47:23;;;;;;;1.35;0.00;;;23.80;67.80;;;;;;5096033;28;20027;-75
2022/06/22 09:50:16;;;;;;;1.10;0.43;;;24.00;68.10;;;;;;5096464;28;20020;-75
2022/06/22 09:52:58;;;;;;;0.17;0.00;;;24.20;66.70;;;;;;5096086;28;20499;-74
2022/06/22 09:58:43;;;;;;;0.35;0.05;;;24.20;63.40;;;;;;5097078;28;20039;-75
2022/06/22 10:01:39;;;;;;;0.90;0.05;;;24.00;67.30;;;;;;5097099;28;20020;-76
2022/06/22 10:04:46;;;;;;;3.15;0.00;;;24.00;67.80;;;;;;5097815;28;20035;-75
2022/06/22 10:07:24;;;;;;;0.40;0.00;;;24.10;68.10;;;;;;5097444;28;20026;-75
2022/06/22 10:10:06;;;;;;;0.43;0.10;;;24.20;69.40;;;;;;5096989;28;20017;-76
2022/06/22 10:12:43;;;;;;;0.75;0.00;;;24.30;66.40;;;;;;5097202;28;20431;-75
2022/06/22 10:15:34;;;;;;;1.30;0.00;;;24.70;64.40;;;;;;5097398;28;20081;-75
2022/06/22 10:18:14;;;;;;;0.57;0.20;;;24.90;66.00;;;;;;5077829;28;20056;-75
2022/06/22 10:20:42;;;;;;;3.40;0.40;;;25.30;66.10;;;;;;5095497;28;20102;-75
2022/06/22 10:23:27;;;;;;;1.20;0.00;;;25.40;60.30;;;;;;5095523;28;20116;-75
2022/06/22 10:26:17;;;;;;;2.72;0.25;;;25.50;60.30;;;;;;5095950;28;20027;-75
2022/06/22 10:28:45;;;;;;;3.15;0.00;;;25.50;58.40;;;;;;5095430;28;20021;-75
2022/06/22 10:31:39;;;;;;;2.72;0.43;;;25.40;59.00;;;;;;5095569;28;20024;-75
2022/06/22 10:34:25;;;;;;;1.15;0.00;;;25.30;59.10;;;;;;5095375;28;20080;-75
2022/06/22 10:37:12;;;;;;;1.30;0.00;;;25.40;58.50;;;;;;5095274;28;20020;-75
2022/06/22 10:39:54;;;;;;;0.98;0.00;;;25.30;55.90;;;;;;5077159;28;20051;-75
2022/06/22 10:45:40;;;;;;;1.65;0.30;;;25.70;56.80;;;;;;5096033;28;20035;-75
2022/06/22 10:48:09;;;;;;;0.55;0.00;;;26.00;56.00;;;;;;5095623;28;20485;-75
2022/06/22 10:50:52;;;;;;;1.38;0.00;;;26.10;57.00;;;;;;5095772;28;20029;-75
2022/06/22 10:53:37;;;;;;;0.68;0.00;;;26.30;58.20;;;;;;5095317;28;20073;-75
2022/06/22 10:56:24;;;;;;;3.05;0.08;;;26.50;56.70;;;;;;5095606;28;20020;-75
2022/06/22 10:59:02;;;;;;;1.27;0.00;;;26.50;55.50;;;;;;5077070;28;20036;-75
2022/06/22 11:02:06;;;;;;;1.70;0.00;;;26.80;56.40;;;;;;5095632;28;20035;-75
2022/06/22 11:04:50;;;;;;;0.40;0.00;;;27.00;54.20;;;;;;5094788;28;20031;-76
2022/06/22 11:07:53;;;;;;;1.20;0.03;;;27.20;53.80;;;;;;5094810;28;20500;-76
2022/06/22 11:10:39;;;;;;;2.00;0.00;;;27.00;51.60;;;;;;5094642;28;20024;-76
2022/06/22 11:13:29;;;;;;;13.57;0.10;;;27.00;55.50;;;;;;5095404;28;20024;-75
2022/06/22 11:16:23;;;;;;;5.47;0.00;;;27.30;51.80;;;;;;5076743;28;20505;-75
2022/06/22 11:19:17;;;;;;;4.00;0.00;;;27.40;51.10;;;;;;5095242;28;20020;-75
2022/06/22 11:22:05;;;;;;;1.95;0.00;;;27.60;52.60;;;;;;5076336;28;20028;-75
2022/06/22 11:24:33;;;;;;;;;;;27.60;51.50;;;;;;5077113;28;20086;-75
2022/06/22 11:30:52;;;;;;;0.95;0.10;;;28.10;49.40;;;;;;5094947;28;20368;-75
2022/06/22 11:33:54;;;;;;;1.95;0.00;;;28.30;49.00;;;;;;5076513;28;20111;-75
2022/06/22 11:36:39;;;;;;;0.10;0.00;;;28.10;48.10;;;;;;5094259;28;20035;-75
2022/06/22 11:39:14;;;;;;;0.55;0.00;;;27.90;47.90;;;;;;5094866;28;20031;-75
2022/06/22 11:41:55;;;;;;;0.30;0.00;;;28.10;48.70;;;;;;5094895;28;20024;-75
2022/06/22 11:47:54;;;;;;;1.23;0.00;;;28.40;46.80;;;;;;5094540;28;20389;-74
2022/06/22 11:50:33;;;;;;;2.35;0.65;;;28.70;46.20;;;;;;5093532;28;20020;-75
2022/06/22 11:53:20;;;;;;;0.08;0.00;;;28.80;45.70;;;;;;5094274;28;20056;-74
2022/06/22 11:55:51;;;;;;;0.22;0.00;;;29.20;47.40;;;;;;5093850;28;20028;-76
2022/06/22 11:58:52;;;;;;;0.10;0.00;;;29.40;46.90;;;;;;5093533;28;20016;-75
2022/06/22 12:01:49;;;;;;;1.17;0.03;;;29.70;46.80;;;;;;5093685;28;20023;-76
2022/06/22 12:04:49;;;;;;;0.38;0.20;;;29.70;47.40;;;;;;5093836;28;20024;-75
2022/06/22 12:07:36;;;;;;;0.52;0.00;;;29.70;46.80;;;;;;5059031;28;20479;-76
2022/06/22 12:10:28;;;;;;;0.22;0.00;;;29.50;45.00;;;;;;5093643;28;20035;-76
2022/06/22 12:13:08;;;;;;;2.78;0.00;;;29.70;45.80;;;;;;5075818;28;20059;-76
2022/06/22 12:15:45;;;;;;;0.30;0.00;;;29.70;42.20;;;;;;5075672;28;20024;-76
2022/06/22 12:18:22;;;;;;;0.77;0.00;;;29.40;44.30;;;;;;5094097;28;20028;-76
2022/06/22 12:21:02;;;;;;;2.13;0.00;;;29.70;45.30;;;;;;5075152;28;20043;-76
2022/06/22 12:23:39;;;;;;;0.68;0.00;;;29.90;43.50;;;;;;5093901;28;20073;-76
2022/06/22 12:26:13;;;;;;;0.17;0.00;;;30.30;42.70;;;;;;5075354;28;20024;-76
2022/06/22 12:28:41;;;;;;;1.08;0.00;;;30.60;42.20;;;;;;5093645;28;20499;-76
2022/06/22 12:31:18;;;;;;;0.15;0.03;;;30.90;39.60;;;;;;5093840;28;20445;-76
2022/06/22 12:34:29;;;;;;;0.50;0.00;;;30.90;42.00;;;;;;5093841;28;20028;-74
2022/06/22 12:37:00;;;;;;;0.63;0.00;;;30.30;41.20;;;;;;5065843;28;20128;-74
2022/06/22 12:39:46;;;;;;;1.65;0.00;;;30.40;40.70;;;;;;5076054;28;20020;-74
2022/06/22 12:43:08;;;;;;;0.63;0.00;;;30.50;41.10;;;;;;5093491;28;20034;-76
2022/06/22 12:45:52;;;;;;;1.08;0.00;;;30.60;41.20;;;;;;5014878;28;20029;-76
2022/06/22 12:48:43;;;;;;;1.52;0.00;;;30.90;40.40;;;;;;5014800;28;20040;-76
2022/06/22 12:51:11;;;;;;;2.08;0.00;;;31.20;39.70;;;;;;5086679;28;20028;-76
2022/06/22 12:53:50;;;;;;;0.60;0.00;;;31.60;40.50;;;;;;5093650;28;20020;-76
2022/06/22 12:56:28;;;;;;;0.10;0.00;;;31.80;40.80;;;;;;5076122;28;20077;-74
2022/06/22 12:59:15;;;;;;;1.20;0.00;;;32.00;40.40;;;;;;5094526;28;20044;-75
2022/06/22 13:01:42;;;;;;;3.13;0.00;;;32.10;38.90;;;;;;5098666;28;20491;-74
2022/06/22 13:04:14;;;;;;;1.55;0.00;;;32.30;39.90;;;;;;5097330;28;20024;-74
2022/06/22 13:06:49;;;;;;;0.38;0.00;;;32.60;39.90;;;;;;5080813;28;20024;-73
2022/06/22 13:09:15;;;;;;;1.92;0.00;;;32.80;38.70;;;;;;5079286;28;20031;-76
2022/06/22 13:11:43;;;;;;;0.55;0.00;;;32.70;37.60;;;;;;5097927;28;20028;-74
2022/06/22 13:14:39;;;;;;;0.75;0.00;;;32.80;38.70;;;;;;5097439;28;20012;-75
2022/06/22 13:17:30;;;;;;;0.70;0.00;;;33.00;38.40;;;;;;5096813;28;20028;-75
2022/06/22 13:20:04;;;;;;;0.05;0.00;;;33.50;40.20;;;;;;5097079;28;20107;-74
2022/06/22 13:23:14;;;;;;;1.65;0.00;;;33.30;35.20;;;;;;5097398;28;20020;-76
2022/06/22 13:25:50;;;;;;;1.38;0.00;;;33.40;35.80;;;;;;5072754;28;20446;-75
2022/06/22 13:28:44;;;;;;;1.60;0.05;;;33.20;38.50;;;;;;5096583;28;20022;-75
2022/06/22 13:31:14;;;;;;;0.43;0.00;;;33.30;39.50;;;;;;5085218;28;20040;-76
2022/06/22 13:33:48;;;;;;;0.75;0.10;;;33.60;39.00;;;;;;5096915;28;20028;-75
2022/06/22 13:36:28;;;;;;;0.90;0.00;;;33.50;38.50;;;;;;5078127;28;20472;-75
2022/06/22 13:39:02;;;;;;;0.85;0.00;;;33.50;39.70;;;;;;5096510;28;20024;-75
2022/06/22 13:42:10;;;;;;;0.43;0.00;;;33.60;39.50;;;;;;5096228;28;20031;-75
2022/06/22 13:45:12;;;;;;;0.63;0.13;;;33.40;38.70;;;;;;5077934;28;20020;-75
2022/06/22 13:48:04;;;;;;;1.30;0.00;;;33.70;38.80;;;;;;5096051;28;20032;-75
2022/06/22 13:50:51;;;;;;;0.55;0.00;;;33.70;39.10;;;;;;5096042;28;20024;-76
2022/06/22 13:53:41;;;;;;;0.93;0.10;;;33.60;38.20;;;;;;5096656;28;20099;-76
2022/06/22 13:56:32;;;;;;;0.30;0.00;;;33.80;39.70;;;;;;5096082;28;20043;-76
2022/06/22 13:59:01;;;;;;;0.32;0.00;;;34.10;39.70;;;;;;5096119;28;20040;-74
2022/06/22 14:01:36;;;;;;;2.05;0.22;;;34.20;39.00;;;;;;5095812;28;20032;-75
2022/06/22 14:04:15;;;;;;;0.80;0.00;;;33.90;38.00;;;;;;5077518;28;20477;-74
2022/06/22 14:07:01;;;;;;;1.83;0.00;;;33.80;38.00;;;;;;5095705;28;20103;-75
2022/06/22 14:09:47;;;;;;;0.15;0.00;;;33.70;39.10;;;;;;5095728;28;20028;-74
2022/06/22 14:12:25;;;;;;;3.53;0.00;;;33.90;40.10;;;;;;5094867;28;20032;-74
2022/06/22 14:15:28;;;;;;;2.30;0.00;;;34.20;39.20;;;;;;5077342;28;20266;-74
2022/06/22 14:18:26;;;;;;;0.20;0.00;;;34.30;38.30;;;;;;5095450;28;20020;-74
2022/06/22 14:21:07;;;;;;;;;;;34.40;38.50;;;;;;5096379;28;20062;-75
2022/06/22 14:23:36;;;;;;;0.60;0.00;;;34.40;38.00;;;;;;5095375;28;19936;-75